createdAt,value
2022-12-15T02:28:04.058Z,12.50
2022-12-15T02:33:11.476Z,13.30
2022-12-15T03:58:12.123Z,8.37
2022-12-15T04:09:37.172Z,8.53
2022-12-15T04:14:31.965Z,8.07
2022-12-15T04:40:14.203Z,9.63
2022-12-15T06:49:20.685Z,8.10
2022-12-15T06:54:14.223Z,7.83
2022-12-15T06:59:08.745Z,7.77
2022-12-15T07:04:05.429Z,8.20
2022-12-15T07:09:00.667Z,7.17
2022-12-15T07:13:55.267Z,7.43
2022-12-15T07:18:48.947Z,7.27
2022-12-15T12:51:30.005Z,25.27
2022-12-15T12:56:39.268Z,26.17
2022-12-15T13:01:35.662Z,25.23
2022-12-15T13:07:25.770Z,27.10
2022-12-15T13:12:51.861Z,25.43
2022-12-15T13:17:53.796Z,27.10
2022-12-15T13:22:48.812Z,27.97
2022-12-15T13:27:44.316Z,29.37
2022-12-15T13:32:40.671Z,29.47
2022-12-15T13:37:51.821Z,30.40
2022-12-15T13:42:56.179Z,30.43
2022-12-15T13:47:58.395Z,30.47
2022-12-15T13:58:18.750Z,30.17
2022-12-15T14:03:13.464Z,30.23
2022-12-15T14:08:16.664Z,29.83
2022-12-15T14:13:19.431Z,33.03
2022-12-15T14:18:27.970Z,32.60
2022-12-15T14:23:25.922Z,31.17
2022-12-15T14:28:29.878Z,30.30
2022-12-15T14:33:28.086Z,31.03
2022-12-15T14:38:32.249Z,31.83
2022-12-15T14:43:33.503Z,31.10
2022-12-15T14:48:43.044Z,30.00
2022-12-15T14:53:43.017Z,30.33
2022-12-15T14:58:41.942Z,29.50
2022-12-15T15:03:40.931Z,31.87
2022-12-15T15:08:44.423Z,29.37
2022-12-15T15:13:42.176Z,30.63
2022-12-15T15:18:35.876Z,29.30
2022-12-15T15:23:29.269Z,29.50
2022-12-15T15:28:28.531Z,28.53
2022-12-15T15:33:22.932Z,30.33
2022-12-15T15:38:27.021Z,30.13
2022-12-15T15:43:20.574Z,30.83
2022-12-15T15:48:24.177Z,32.20
2022-12-15T15:53:22.180Z,32.90
2022-12-15T15:58:15.765Z,28.97
2022-12-15T16:03:09.665Z,34.70
2022-12-15T16:08:06.072Z,34.30
2022-12-15T16:13:03.504Z,33.73
2022-12-15T16:17:57.229Z,35.90
2022-12-15T16:22:55.894Z,36.23
2022-12-15T16:27:50.607Z,31.13
2022-12-15T16:32:44.199Z,36.57
2022-12-15T16:37:39.782Z,35.27
2022-12-15T16:42:33.256Z,34.40
2022-12-15T16:47:29.402Z,34.37
2022-12-15T16:52:23.248Z,33.97
2022-12-15T16:57:16.858Z,35.17
2022-12-15T17:02:26.885Z,37.10
2022-12-15T17:07:23.150Z,36.40
2022-12-15T17:12:18.982Z,36.37
2022-12-15T21:53:11.503Z,22.03
2022-12-15T22:12:02.133Z,21.20
2022-12-15T22:16:56.070Z,19.77
2022-12-15T22:21:49.522Z,20.13
